Time;durP1;ratioP1;P1;durP2;ratioP2;P2;SDS_P1;SDS_P2;PMS_P1;PMS_P2;Temp;Humidity;BMP_temperature;BMP_pressure;BME280_temperature;BME280_humidity;BME280_pressure;Samples;Min_cycle;Max_cycle;Signal;HPM_P1;HPM_P2
2022/04/11 00:01:34;;;;;;;10.63;5.28;;;;;;;;;;5051360;28;20056;-75
2022/04/11 00:04:00;;;;;;;10.48;6.03;;;;;;;;;;5051273;28;20378;-75
2022/04/11 00:06:26;;;;;;;9.60;6.15;;;;;;;;;;5050831;28;20027;-75
2022/04/11 00:08:52;;;;;;;9.88;5.95;;;;;;;;;;5051334;28;20108;-75
2022/04/11 00:11:18;;;;;;;10.23;5.07;;;;;;;;;;5050700;28;20364;-75
2022/04/11 00:13:44;;;;;;;8.35;5.22;;;;;;;;;;5051169;28;20029;-75
2022/04/11 00:16:10;;;;;;;8.45;5.32;;;;;;;;;;5050591;28;20112;-73
2022/04/11 00:18:36;;;;;;;10.32;5.85;;;;;;;;;;5051222;28;20103;-75
2022/04/11 00:21:02;;;;;;;10.93;6.53;;;;;;;;;;5051094;28;20079;-73
2022/04/11 00:23:28;;;;;;;9.13;6.22;;;;;;;;;;5050558;28;20660;-74
2022/04/11 00:25:54;;;;;;;10.38;6.97;;;;;;;;;;5051017;28;20056;-73
2022/04/11 00:28:20;;;;;;;10.88;6.35;;;;;;;;;;5050448;28;20080;-75
2022/04/11 00:30:46;;;;;;;9.88;6.43;;;;;;;;;;5051456;28;20467;-75
2022/04/11 00:33:12;;;;;;;9.77;6.82;;;;;;;;;;5050456;28;20017;-75
2022/04/11 00:35:38;;;;;;;9.57;6.35;;;;;;;;;;5051240;28;20028;-75
2022/04/11 00:38:04;;;;;;;13.05;7.00;;;;;;;;;;5050895;28;20064;-75
2022/04/11 00:40:30;;;;;;;9.25;6.50;;;;;;;;;;5050623;28;20017;-75
2022/04/11 00:42:56;;;;;;;11.48;6.88;;;;;;;;;;5055038;28;20047;-75
2022/04/11 00:45:22;;;;;;;9.57;6.45;;;;;;;;;;5049446;28;20018;-75
2022/04/11 00:47:48;;;;;;;12.65;6.55;;;;;;;;;;5035043;28;20061;-75
2022/04/11 00:50:14;;;;;;;9.68;6.93;;;;;;;;;;5033940;28;20542;-74
2022/04/11 00:52:42;;;;;;;13.05;7.60;;;;;;;;;;5034442;28;20057;-74
2022/04/11 00:55:09;;;;;;;10.43;6.75;;;;;;;;;;5017127;28;20374;-72
2022/04/11 00:57:39;;;;;;;12.13;7.38;;;;;;;;;;5037341;28;20094;-74
2022/04/11 01:00:07;;;;;;;8.55;6.65;;;;;;;;;;5034886;28;20037;-75
2022/04/11 01:02:33;;;;;;;13.43;7.25;;;;;;;;;;5034689;28;20044;-75
2022/04/11 01:04:59;;;;;;;12.73;7.63;;;;;;;;;;5034612;28;20053;-75
2022/04/11 01:07:25;;;;;;;10.07;7.03;;;;;;;;;;5033287;28;20434;-75
2022/04/11 01:09:51;;;;;;;12.32;7.30;;;;;;;;;;5043525;28;20089;-75
2022/04/11 01:12:18;;;;;;;11.50;6.65;;;;;;;;;;5043185;28;20035;-76
2022/04/11 01:14:44;;;;;;;10.50;7.15;;;;;;;;;;5022326;28;20033;-76
2022/04/11 01:17:10;;;;;;;12.20;7.22;;;0.60;99.90;;;;;;5033852;28;20033;-72
2022/04/11 01:19:36;;;;;;;13.95;7.85;;;0.60;99.90;;;;;;5034327;28;20030;-74
2022/04/11 01:22:01;;;;;;;9.40;6.55;;;0.50;99.90;;;;;;5034789;28;20103;-73
2022/04/11 01:24:29;;;;;;;11.27;7.03;;;0.50;99.90;;;;;;5033286;28;20028;-74
2022/04/11 01:26:54;;;;;;;10.38;6.85;;;0.50;99.90;;;;;;5034293;28;20503;-74
2022/04/11 01:29:21;;;;;;;14.75;8.43;;;0.40;99.90;;;;;;5033340;28;20117;-75
2022/04/11 01:31:47;;;;;;;14.25;7.78;;;0.40;99.90;;;;;;5033786;28;20379;-75
2022/04/11 01:34:13;;;;;;;13.02;7.95;;;0.40;99.90;;;;;;5015422;28;20455;-73
2022/04/11 01:36:39;;;;;;;11.75;7.85;;;0.40;99.90;;;;;;5034099;28;20087;-74
2022/04/11 01:39:05;;;;;;;12.13;7.68;;;0.40;99.90;;;;;;5035672;28;20109;-75
2022/04/11 01:41:31;;;;;;;18.65;8.50;;;0.40;99.90;;;;;;5035518;28;20733;-75
2022/04/11 01:43:56;;;;;;;13.68;7.15;;;0.50;99.90;;;;;;5033819;28;20026;-74
2022/04/11 01:46:22;;;;;;;9.50;7.07;;;0.50;99.90;;;;;;5045641;28;20052;-74
2022/04/11 01:48:47;;;;;;;9.10;7.00;;;0.50;99.90;;;;;;5053616;28;20029;-74
2022/04/11 01:51:14;;;;;;;12.88;7.05;;;0.50;99.90;;;;;;5052811;28;20108;-72
2022/04/11 01:53:40;;;;;;;9.95;7.82;;;0.50;99.90;;;;;;5051891;28;20048;-75
2022/04/11 01:56:06;;;;;;;11.55;8.25;;;0.40;99.90;;;;;;5053584;28;20055;-75
2022/04/11 01:58:32;;;;;;;12.15;7.35;;;0.40;99.90;;;;;;5052379;28;20061;-75
2022/04/11 02:01:00;;;;;;;12.73;8.18;;;0.50;99.90;;;;;;5052932;28;20056;-74
2022/04/11 02:03:26;;;;;;;12.88;8.13;;;0.50;99.90;;;;;;5051763;28;20028;-74
2022/04/11 02:05:53;;;;;;;9.40;6.88;;;0.50;99.90;;;;;;5053085;28;20039;-75
2022/04/11 02:08:19;;;;;;;9.30;7.80;;;0.60;99.90;;;;;;5052084;28;20490;-73
2022/04/11 02:10:45;;;;;;;12.18;6.95;;;0.60;99.90;;;;;;5052865;28;20025;-74
2022/04/11 02:13:11;;;;;;;12.63;7.70;;;0.70;99.90;;;;;;5052897;28;20029;-71
2022/04/11 02:15:37;;;;;;;11.40;7.70;;;0.70;99.90;;;;;;5052626;28;20025;-74
2022/04/11 02:18:03;;;;;;;13.80;7.43;;;0.80;99.90;;;;;;5051772;28;20064;-72
2022/04/11 02:20:29;;;;;;;11.43;6.70;;;0.90;99.90;;;;;;5052390;28;20029;-74
2022/04/11 02:22:59;;;;;;;11.00;6.75;;;1.00;99.90;;;;;;5053119;28;20037;-73
2022/04/11 02:25:31;;;;;;;10.55;6.93;;;1.00;99.90;;;;;;5052449;28;20446;-73
2022/04/11 02:27:59;;;;;;;10.93;6.78;;;1.00;99.90;;;;;;5052224;28;20033;-73
2022/04/11 02:30:26;;;;;;;9.70;6.40;;;1.00;99.90;;;;;;5050811;28;20037;-73
2022/04/11 02:32:52;;;;;;;13.50;7.25;;;1.00;99.90;;;;;;5051934;28;20033;-73
2022/04/11 02:35:19;;;;;;;9.73;7.18;;;1.00;99.90;;;;;;5051135;28;20454;-73
2022/04/11 02:37:45;;;;;;;10.60;6.28;;;1.00;99.90;;;;;;5051688;28;20025;-72
2022/04/11 02:40:12;;;;;;;9.55;6.45;;;1.00;99.90;;;;;;5051296;28;20078;-70
2022/04/11 02:42:44;;;;;;;12.25;7.18;;;1.00;99.90;;;;;;5051836;28;20104;-73
2022/04/11 02:45:11;;;;;;;11.57;6.93;;;1.00;99.90;;;;;;5048372;28;20036;-71
2022/04/11 02:47:37;;;;;;;9.95;6.85;;;1.00;99.90;;;;;;5033214;28;20056;-75
2022/04/11 02:50:03;;;;;;;12.27;7.68;;;1.00;99.90;;;;;;5031725;28;20486;-75
2022/04/11 02:52:29;;;;;;;12.88;7.03;;;1.00;99.90;;;;;;5030528;28;20080;-72
2022/04/11 02:54:56;;;;;;;10.45;7.60;;;1.00;99.90;;;;;;5031548;28;20026;-75
2022/04/11 02:57:22;;;;;;;15.30;8.45;;;1.00;99.90;;;;;;5031002;28;20037;-74
2022/04/11 02:59:48;;;;;;;10.05;7.20;;;0.90;99.90;;;;;;5032059;28;20467;-75
2022/04/11 03:02:14;;;;;;;12.63;7.45;;;1.00;99.90;;;;;;5031579;28;20045;-72
2022/04/11 03:04:40;;;;;;;11.43;7.60;;;1.00;99.90;;;;;;5032040;28;20416;-74
2022/04/11 03:07:06;;;;;;;11.30;7.80;;;1.00;99.90;;;;;;5032325;28;20033;-75
2022/04/11 03:09:32;;;;;;;16.40;8.02;;;1.00;99.90;;;;;;5031389;28;20021;-74
2022/04/11 03:11:58;;;;;;;10.60;7.60;;;0.90;99.90;;;;;;5031310;28;20037;-75
2022/04/11 03:14:24;;;;;;;10.38;7.55;;;0.90;99.90;;;;;;5030443;28;20033;-74
2022/04/11 03:16:50;;;;;;;13.07;8.00;;;0.90;99.90;;;;;;5031324;28;20040;-74
2022/04/11 03:19:15;;;;;;;13.65;7.88;;;0.90;99.90;;;;;;5030788;28;20033;-75
2022/04/11 03:21:41;;;;;;;12.18;7.80;;;0.90;99.90;;;;;;5031608;28;20052;-74
2022/04/11 03:24:07;;;;;;;12.65;8.60;;;0.90;99.90;;;;;;5032401;28;20029;-74
2022/04/11 03:26:32;;;;;;;11.77;7.75;;;0.90;99.90;;;;;;5032539;28;20056;-74
2022/04/11 03:28:58;;;;;;;11.98;8.70;;;0.90;99.90;;;;;;5016013;28;20030;-74
2022/04/11 03:31:23;;;;;;;13.75;7.97;;;0.90;99.90;;;;;;5033043;28;20077;-74
2022/04/11 03:33:49;;;;;;;13.15;8.15;;;0.80;99.90;;;;;;5041604;28;20404;-74
2022/04/11 03:36:15;;;;;;;13.00;7.90;;;0.90;99.90;;;;;;5038065;28;20037;-73
2022/04/11 03:38:40;;;;;;;13.00;8.60;;;0.80;99.90;;;;;;5031078;28;20037;-74
2022/04/11 03:41:06;;;;;;;16.83;7.78;;;0.80;99.90;;;;;;5031686;28;20025;-75
2022/04/11 03:43:31;;;;;;;12.02;8.43;;;0.80;99.90;;;;;;5031078;28;20033;-75
2022/04/11 03:45:57;;;;;;;11.60;8.20;;;0.80;99.90;;;;;;5023457;28;20390;-73
2022/04/11 03:48:23;;;;;;;11.82;7.65;;;0.70;99.90;;;;;;5050647;28;20029;-74
2022/04/11 03:50:48;;;;;;;13.30;8.60;;;0.70;99.90;;;;;;5051181;28;20509;-73
2022/04/11 03:53:16;;;;;;;9.80;7.43;;;0.80;99.90;;;;;;5050366;28;20052;-73
2022/04/11 03:55:42;;;;;;;12.77;8.02;;;0.80;99.90;;;;;;5051383;28;20017;-72
2022/04/11 03:58:08;;;;;;;13.18;7.10;;;0.90;99.90;;;;;;5051370;28;20496;-74
2022/04/11 04:00:33;;;;;;;14.07;8.23;;;0.90;99.90;;;;;;5049986;28;20041;-74
2022/04/11 04:03:10;;;;;;;11.95;7.63;;;0.90;99.90;;;;;;5051492;28;20410;-73
2022/04/11 04:05:43;;;;;;;11.65;7.85;;;0.90;99.90;;;;;;5050905;28;20028;-74
2022/04/11 04:08:10;;;;;;;11.60;7.32;;;0.80;99.90;;;;;;5051333;28;20044;-74
2022/04/11 04:10:36;;;;;;;13.25;8.77;;;0.80;99.90;;;;;;5050497;28;20048;-73
2022/04/11 04:13:02;;;;;;;12.38;7.95;;;0.80;99.90;;;;;;5050770;28;20406;-74
2022/04/11 04:15:28;;;;;;;12.55;7.97;;;0.70;99.90;;;;;;5050926;28;20075;-74
2022/04/11 04:17:55;;;;;;;11.77;8.50;;;0.70;99.90;;;;;;5055293;28;20025;-74
2022/04/11 04:20:23;;;;;;;14.43;7.97;;;0.70;99.90;;;;;;5054336;28;20167;-73
2022/04/11 04:22:49;;;;;;;17.80;9.43;;;0.60;99.90;;;;;;5055213;28;20036;-74
2022/04/11 04:25:15;;;;;;;17.60;9.52;;;0.60;99.90;;;;;;5053075;28;20021;-73
2022/04/11 04:27:40;;;;;;;17.55;8.32;;;0.60;99.90;;;;;;5054904;28;20059;-74
2022/04/11 04:30:06;;;;;;;15.82;8.40;;;0.60;99.90;;;;;;5054701;28;20044;-74
2022/04/11 04:32:32;;;;;;;13.32;8.57;;;0.60;99.90;;;;;;5054360;28;20485;-73
2022/04/11 04:34:58;;;;;;;13.15;9.00;;;0.50;99.90;;;;;;5054766;28;20025;-73
2022/04/11 04:37:23;;;;;;;13.23;8.02;;;0.50;99.90;;;;;;5054098;28;20120;-73
2022/04/11 04:39:49;;;;;;;13.82;8.95;;;0.40;99.90;;;;;;5055104;28;20029;-72
2022/04/11 04:42:22;;;;;;;14.70;8.50;;;0.40;99.90;;;;;;5055243;28;20075;-71
2022/04/11 04:44:48;;;;;;;16.75;9.30;;;0.40;99.90;;;;;;5054707;28;20462;-72
2022/04/11 04:47:17;;;;;;;13.70;9.40;;;0.30;99.90;;;;;;5033421;28;20030;-71
2022/04/11 04:49:44;;;;;;;14.93;9.05;;;0.30;99.90;;;;;;5034986;28;20036;-74
2022/04/11 04:52:10;;;;;;;14.50;9.20;;;0.30;99.90;;;;;;5034823;28;20062;-75
2022/04/11 04:54:36;;;;;;;14.38;8.73;;;0.30;99.90;;;;;;5033975;28;20053;-74
2022/04/11 04:57:02;;;;;;;14.65;9.35;;;0.20;99.90;;;;;;5034527;28;20463;-73
2022/04/11 04:59:28;;;;;;;13.82;8.93;;;0.20;99.90;;;;;;5033526;28;20037;-75
2022/04/11 05:01:54;;;;;;;16.13;9.52;;;0.20;99.90;;;;;;5034464;28;20040;-74
2022/04/11 05:04:20;;;;;;;15.70;9.35;;;0.10;99.90;;;;;;5033787;28;20021;-74
2022/04/11 05:06:46;;;;;;;13.73;9.30;;;0.10;99.90;;;;;;5034150;28;20026;-74
2022/04/11 05:09:12;;;;;;;17.33;10.23;;;0.10;99.90;;;;;;5035931;28;20045;-74
2022/04/11 05:11:37;;;;;;;18.77;10.30;;;0.10;99.90;;;;;;5034720;28;20481;-75
2022/04/11 05:14:03;;;;;;;23.02;12.27;;;0.10;99.90;;;;;;5016092;28;20025;-72
2022/04/11 05:16:29;;;;;;;23.60;12.73;;;0.10;99.90;;;;;;5033143;28;20391;-75
2022/04/11 05:18:55;;;;;;;22.60;12.07;;;0.10;99.90;;;;;;5034214;28;20025;-76
2022/04/11 05:21:20;;;;;;;23.73;11.65;;;0.10;99.90;;;;;;5033381;28;20112;-74
2022/04/11 05:23:46;;;;;;;19.88;11.45;;;0.20;99.90;;;;;;5034264;28;20397;-72
2022/04/11 05:26:12;;;;;;;17.67;11.20;;;0.20;99.90;;;;;;5034051;28;20030;-75
2022/04/11 05:28:37;;;;;;;17.45;9.98;;;0.30;99.90;;;;;;5033175;28;20040;-75
2022/04/11 05:31:03;;;;;;;15.90;10.60;;;0.30;99.90;;;;;;5038175;28;20407;-73
2022/04/11 05:33:29;;;;;;;17.75;10.60;;;0.30;99.90;;;;;;5033445;28;20029;-75
2022/04/11 05:35:58;;;;;;;18.15;10.82;;;0.40;99.90;;;;;;5034143;28;20076;-74
2022/04/11 05:38:24;;;;;;;15.23;10.73;;;0.40;99.90;;;;;;5033213;28;20033;-74
2022/04/11 05:40:49;;;;;;;18.05;10.50;;;0.50;99.90;;;;;;5034114;28;20033;-74
2022/04/11 05:43:15;;;;;;;14.20;10.07;;;0.60;99.90;;;;;;5032878;28;20387;-72
2022/04/11 05:45:42;;;;;;;18.55;12.05;;;0.60;99.90;;;;;;5040518;28;20017;-77
2022/04/11 05:48:08;;;;;;;24.08;13.02;;;0.70;99.90;;;;;;5053598;28;20110;-85
2022/04/11 05:50:34;;;;;;;18.38;10.27;;;0.80;99.90;;;;;;5052819;28;20040;-76
2022/04/11 05:53:01;;;;;;;21.63;11.15;;;1.00;99.90;;;;;;5054537;28;20045;-76
2022/04/11 05:55:27;;;;;;;20.48;10.77;;;1.10;99.90;;;;;;5051804;28;20033;-73
2022/04/11 05:57:53;;;;;;;20.05;10.55;;;1.40;99.90;;;;;;5053677;28;20040;-72
2022/04/11 06:00:19;;;;;;;24.65;11.93;;;1.60;99.90;;;;;;5052008;28;20040;-78
2022/04/11 06:02:45;;;;;;;22.33;12.35;;;1.70;99.90;;;;;;5052385;28;20060;-75
2022/04/11 06:05:11;;;;;;;22.17;11.43;;;1.90;99.90;;;;;;5055976;28;20071;-77
2022/04/11 06:07:37;;;;;;;21.75;12.02;;;1.90;99.90;;;;;;5050124;28;20024;-77
2022/04/11 06:10:04;;;;;;;29.23;12.07;;;2.00;99.90;;;;;;5042416;28;20080;-78
2022/04/11 06:12:30;;;;;;;22.80;11.00;;;2.00;99.90;;;;;;5041622;28;20021;-75
2022/04/11 06:14:55;;;;;;;23.92;11.63;;;2.10;99.90;;;;;;5049587;28;20028;-79
2022/04/11 06:17:24;;;;;;;19.08;10.40;;;2.20;99.90;;;;;;5053089;28;20029;-76
2022/04/11 06:19:51;;;;;;;21.35;10.43;;;2.30;99.90;;;;;;5052848;28;20028;-77
2022/04/11 06:22:17;;;;;;;24.48;10.25;;;2.40;99.90;;;;;;5053722;28;20493;-74
2022/04/11 06:24:43;;;;;;;19.27;9.63;;;2.50;99.90;;;;;;5042023;28;20490;-77
2022/04/11 06:27:09;;;;;;;18.70;10.25;;;2.70;99.90;;;;;;5033780;28;20029;-82
2022/04/11 06:29:35;;;;;;;16.83;8.55;;;2.90;99.90;;;;;;5033372;28;20045;-80
2022/04/11 06:32:04;;;;;;;15.98;9.27;;;3.10;99.90;;;;;;5033149;28;20040;-78
2022/04/11 06:34:34;;;;;;;18.87;9.83;;;3.30;99.90;;;;;;5033494;28;20025;-78
2022/04/11 06:36:59;;;;;;;20.10;9.03;;;3.40;99.90;;;;;;5034116;28;20280;-75
2022/04/11 06:39:25;;;;;;;17.73;9.75;;;3.60;99.90;;;;;;5031576;28;20272;-74
2022/04/11 06:41:51;;;;;;;19.67;9.82;;;3.70;99.90;;;;;;5033242;28;20455;-73
2022/04/11 06:44:17;;;;;;;12.38;8.55;;;3.90;99.90;;;;;;5033030;28;20056;-72
2022/04/11 06:46:42;;;;;;;12.50;7.85;;;4.00;99.90;;;;;;5047992;28;20040;-72
2022/04/11 06:49:08;;;;;;;11.60;7.25;;;4.20;99.90;;;;;;5052507;28;20474;-72
2022/04/11 06:51:34;;;;;;;12.45;7.18;;;4.30;99.90;;;;;;5051588;28;20112;-71
2022/04/11 06:53:59;;;;;;;10.10;6.18;;;4.50;99.90;;;;;;5044863;28;20494;-73
2022/04/11 06:56:25;;;;;;;10.15;6.88;;;4.70;99.90;;;;;;5047207;28;20033;-74
2022/04/11 06:58:51;;;;;;;12.10;6.65;;;4.90;99.90;;;;;;5050909;28;20080;-74
2022/04/11 07:01:17;;;;;;;13.35;7.13;;;5.00;99.90;;;;;;5051855;28;20111;-72
2022/04/11 07:03:43;;;;;;;10.75;6.40;;;5.30;99.90;;;;;;5051581;28;20387;-74
2022/04/11 07:06:10;;;;;;;14.68;7.60;;;5.50;99.90;;;;;;5052976;28;20032;-75
2022/04/11 07:08:35;;;;;;;13.95;6.55;;;5.60;99.90;;;;;;5052284;28;20077;-74
2022/04/11 07:11:02;;;;;;;12.65;6.22;;;5.70;99.90;;;;;;5053492;28;20029;-74
2022/04/11 07:13:28;;;;;;;7.60;5.95;;;5.80;99.90;;;;;;5054292;28;20029;-74
2022/04/11 07:15:54;;;;;;;8.05;5.47;;;;;;;;;;5054057;28;20048;-74
2022/04/11 07:18:20;;;;;;;6.50;4.70;;;;;;;;;;5053778;28;20029;-73
2022/04/11 07:20:46;;;;;;;7.28;5.60;;;;;;;;;;5050685;28;20029;-76
2022/04/11 07:23:12;;;;;;;8.48;4.40;;;;;;;;;;5051763;28;20036;-74
2022/04/11 07:25:39;;;;;;;6.53;4.22;;;;;;;;;;5050129;28;20025;-74
2022/04/11 07:28:08;;;;;;;7.45;4.28;;;;;;;;;;5041487;28;20105;-74
2022/04/11 07:30:33;;;;;;;12.07;4.88;;;7.00;99.90;;;;;;5039866;28;20038;-74
2022/04/11 07:32:59;;;;;;;7.50;4.57;;;7.00;99.90;;;;;;5039674;28;20400;-74
2022/04/11 07:35:25;;;;;;;6.50;3.67;;;7.20;99.90;;;;;;5042883;28;20418;-75
2022/04/11 07:37:50;;;;;;;7.78;4.10;;;7.20;99.90;;;;;;5038300;28;21293;-73
2022/04/11 07:40:16;;;;;;;7.47;3.90;;;7.30;99.40;;;;;;5040033;28;20430;-74
2022/04/11 07:42:42;;;;;;;7.35;4.13;;;7.40;99.30;;;;;;5042276;28;20031;-74
2022/04/11 07:45:08;;;;;;;10.60;4.57;;;7.40;98.90;;;;;;5040696;28;20059;-74
2022/04/11 07:47:34;;;;;;;8.77;3.90;;;7.60;97.10;;;;;;5043572;28;20382;-74
2022/04/11 07:49:59;;;;;;;7.10;3.80;;;7.70;96.80;;;;;;5032837;28;20036;-77
2022/04/11 07:52:26;;;;;;;8.55;4.25;;;7.80;96.70;;;;;;5034721;28;20061;-74
2022/04/11 07:54:52;;;;;;;7.28;3.67;;;7.80;97.00;;;;;;5044588;28;20029;-75
2022/04/11 07:57:18;;;;;;;6.15;4.00;;;7.90;95.90;;;;;;5055548;28;20060;-73
2022/04/11 07:59:43;;;;;;;7.68;3.92;;;8.00;96.00;;;;;;5055071;28;20078;-75
2022/04/11 08:02:09;;;;;;;6.88;4.15;;;8.10;95.10;;;;;;5037860;28;20102;-76
2022/04/11 08:04:35;;;;;;;8.23;4.57;;;8.20;93.90;;;;;;5053734;28;20028;-76
2022/04/11 08:07:02;;;;;;;8.13;4.05;;;;;;;;;;5055977;28;20210;-74
2022/04/11 08:09:28;;;;;;;5.60;3.92;;;;;;;;;;5055006;28;20052;-75
2022/04/11 08:11:54;;;;;;;4.35;3.40;;;;;;;;;;5055988;28;20035;-75
2022/04/11 08:14:20;;;;;;;5.97;4.15;;;;;;;;;;5056021;28;20021;-73
2022/04/11 08:16:46;;;;;;;5.75;3.63;;;;;;;;;;5055886;28;20029;-75
2022/04/11 08:19:13;;;;;;;7.10;3.97;;;;;;;;;;5056353;28;20060;-75
2022/04/11 08:21:38;;;;;;;6.68;3.95;;;9.00;91.90;;;;;;5054274;28;20131;-73
2022/04/11 08:24:05;;;;;;;4.30;3.30;;;9.00;91.60;;;;;;5049729;28;20100;-75
2022/04/11 08:26:31;;;;;;;7.68;4.13;;;9.00;90.80;;;;;;5035228;28;20037;-75
2022/04/11 08:28:56;;;;;;;7.28;3.95;;;9.20;91.00;;;;;;5036029;28;20037;-76
2022/04/11 08:31:22;;;;;;;5.38;3.42;;;9.20;89.70;;;;;;5034963;28;20026;-72
2022/04/11 08:33:48;;;;;;;4.78;3.58;;;9.30;90.20;;;;;;5035382;28;20026;-75
2022/04/11 08:36:13;;;;;;;4.75;2.88;;;9.50;86.30;;;;;;5035691;28;20044;-75
2022/04/11 08:38:39;;;;;;;5.63;3.70;;;;;;;;;;5033578;28;20029;-75
2022/04/11 08:41:13;;;;;;;5.22;3.55;;;9.70;84.60;;;;;;5035722;28;20022;-75
2022/04/11 08:43:39;;;;;;;4.45;3.05;;;9.70;85.70;;;;;;5033811;28;20025;-75
2022/04/11 08:46:06;;;;;;;4.97;3.20;;;9.80;83.60;;;;;;5046398;28;20029;-76
2022/04/11 08:48:32;;;;;;;4.90;3.30;;;9.90;84.90;;;;;;5036629;28;20025;-75
2022/04/11 08:50:58;;;;;;;6.80;2.92;;;10.00;84.00;;;;;;5054821;28;20040;-75
2022/04/11 08:53:24;;;;;;;5.22;2.70;;;10.10;82.70;;;;;;5053012;28;20049;-73
2022/04/11 08:55:51;;;;;;;6.88;3.15;;;10.30;82.60;;;;;;5046022;28;20025;-75
2022/04/11 08:58:17;;;;;;;4.75;2.97;;;10.40;79.70;;;;;;5054375;28;20025;-74
2022/04/11 09:00:43;;;;;;;10.15;3.45;;;10.50;80.10;;;;;;5053405;28;20040;-74
2022/04/11 09:03:09;;;;;;;15.60;3.45;;;10.50;80.20;;;;;;5053654;28;20021;-74
2022/04/11 09:05:34;;;;;;;5.60;2.95;;;10.70;78.20;;;;;;5053362;28;20035;-74
2022/04/11 09:08:00;;;;;;;6.70;3.38;;;10.80;77.90;;;;;;5054259;28;20100;-75
2022/04/11 09:10:27;;;;;;;5.20;2.97;;;10.90;77.40;;;;;;5053387;28;20028;-73
2022/04/11 09:12:57;;;;;;;6.45;2.38;;;11.00;76.70;;;;;;5057709;28;20032;-74
2022/04/11 09:15:25;;;;;;;8.15;3.05;;;11.00;76.00;;;;;;5053064;28;20033;-72
2022/04/11 09:17:52;;;;;;;3.95;2.65;;;11.20;75.20;;;;;;5053404;28;20124;-74
2022/04/11 09:20:24;;;;;;;4.97;2.97;;;11.30;73.70;;;;;;5053655;28;20028;-75
2022/04/11 09:22:50;;;;;;;4.05;2.40;;;11.40;75.10;;;;;;5054039;28;20056;-75
2022/04/11 09:25:38;;;;;;;4.43;2.83;;;11.50;74.40;;;;;;5031930;28;20068;-75
2022/04/11 09:28:10;;;;;;;5.20;2.30;;;11.80;73.30;;;;;;5034450;28;20069;-74
2022/04/11 09:30:43;;;;;;;3.95;2.38;;;12.10;90.10;;;;;;5035248;28;20038;-74
2022/04/11 09:33:09;;;;;;;5.00;2.25;;;12.20;96.20;;;;;;5035712;28;20022;-75
2022/04/11 09:35:40;;;;;;;5.47;2.10;;;12.20;68.30;;;;;;5034591;28;20470;-75
2022/04/11 09:38:25;;;;;;;3.25;2.10;;;12.30;65.50;;;;;;5035208;28;20164;-75
2022/04/11 09:40:55;;;;;;;3.80;2.05;;;12.40;65.40;;;;;;5039166;28;20022;-75
2022/04/11 09:43:25;;;;;;;5.53;2.03;;;12.40;65.20;;;;;;5046660;28;20025;-74
2022/04/11 09:45:51;;;;;;;4.72;2.55;;;12.50;65.50;;;;;;5034265;28;20037;-75
2022/04/11 09:48:22;;;;;;;5.93;2.28;;;12.50;65.30;;;;;;5033426;28;20042;-75
2022/04/11 09:50:49;;;;;;;3.45;1.85;;;12.70;63.40;;;;;;5033120;28;20026;-74
2022/04/11 09:53:23;;;;;;;4.35;2.20;;;12.70;65.00;;;;;;5025550;28;20499;-75
2022/04/11 09:55:53;;;;;;;5.90;2.35;;;12.80;64.10;;;;;;5013085;28;20033;-73
2022/04/11 09:58:23;;;;;;;3.72;2.05;;;12.90;63.90;;;;;;5013408;28;20026;-74
2022/04/11 10:00:51;;;;;;;5.80;2.58;;;12.90;63.70;;;;;;5012919;28;20541;-78
2022/04/11 10:03:20;;;;;;;6.90;2.20;;;13.00;63.00;;;;;;5013261;28;20038;-73
2022/04/11 10:05:47;;;;;;;4.40;1.83;;;13.00;62.10;;;;;;5012655;28;20774;-74
2022/04/11 10:08:13;;;;;;;4.40;1.90;;;13.10;62.40;;;;;;5014104;28;20037;-73
2022/04/11 10:10:39;;;;;;;6.43;2.55;;;13.20;62.40;;;;;;5012606;28;20109;-75
2022/04/11 10:13:07;;;;;;;5.53;1.98;;;13.30;62.10;;;;;;5013594;28;20101;-74
2022/04/11 10:15:32;;;;;;;5.32;2.10;;;13.50;61.20;;;;;;5012917;28;20030;-73
2022/04/11 10:17:58;;;;;;;6.45;2.38;;;13.70;61.90;;;;;;5013775;28;20037;-74
2022/04/11 10:20:25;;;;;;;3.30;1.58;;;13.90;58.00;;;;;;5013028;28;20030;-72
2022/04/11 10:23:03;;;;;;;5.13;1.85;;;14.00;58.20;;;;;;5014295;28;20029;-73
2022/04/11 10:25:37;;;;;;;2.72;1.52;;;14.10;56.60;;;;;;5031771;28;20113;-73
2022/04/11 10:28:19;;;;;;;7.05;2.05;;;;;;;;;;5015984;28;20029;-74
2022/04/11 10:30:46;;;;;;;18.42;2.63;;;;;;;;;;5032376;28;20045;-75
2022/04/11 10:33:13;;;;;;;7.32;1.90;;;;;;;;;;5032929;28;20025;-74
2022/04/11 10:35:43;;;;;;;5.55;1.40;;;;;;;;;;5031761;28;20031;-73
2022/04/11 10:38:09;;;;;;;18.42;2.75;;;;;;;;;;5032835;28;20022;-74
2022/04/11 10:40:37;;;;;;;50.45;3.97;;;;;;;;;;5031584;28;20112;-74
2022/04/11 10:43:08;;;;;;;6.45;1.83;;;;;;;;;;5032839;28;20030;-73
2022/04/11 10:45:35;;;;;;;6.13;1.65;;;;;;;;;;5026245;28;20021;-74
2022/04/11 10:48:01;;;;;;;3.63;1.50;;;;;;;;;;5012864;28;20030;-75
2022/04/11 10:50:39;;;;;;;2.03;1.55;;;14.70;52.80;;;;;;5012075;28;20026;-73
2022/04/11 10:53:09;;;;;;;2.65;1.50;;;14.80;55.00;;;;;;5018448;28;20095;-76
2022/04/11 10:55:35;;;;;;;4.40;1.70;;;15.00;53.30;;;;;;5050129;28;20055;-74
2022/04/11 10:58:02;;;;;;;2.17;1.80;;;15.10;53.50;;;;;;5052412;28;20040;-80
2022/04/11 11:00:35;;;;;;;5.80;2.10;;;15.20;53.50;;;;;;5038916;28;20134;-74
2022/04/11 11:03:06;;;;;;;2.35;1.90;;;15.30;52.50;;;;;;5042630;28;20025;-82
2022/04/11 11:05:38;;;;;;;4.32;1.92;;;15.30;52.60;;;;;;5040158;28;20025;-76
2022/04/11 11:08:10;;;;;;;3.90;2.40;;;15.30;53.30;;;;;;5040882;28;20379;-76
2022/04/11 11:10:55;;;;;;;2.03;1.85;;;15.50;51.90;;;;;;5040167;28;20387;-75
2022/04/11 11:13:34;;;;;;;5.68;2.10;;;15.50;52.40;;;;;;5041916;28;20028;-74
2022/04/11 11:16:11;;;;;;;4.90;2.03;;;15.50;53.10;;;;;;5041046;28;20363;-74
2022/04/11 11:18:48;;;;;;;2.13;1.50;;;15.60;52.40;;;;;;5040254;28;20065;-75
2022/04/11 11:21:44;;;;;;;6.00;1.77;;;15.90;51.60;;;;;;5040261;28;20032;-75
2022/04/11 11:24:11;;;;;;;3.97;1.90;;;;;;;;;;5035580;28;20390;-76
2022/04/11 11:26:45;;;;;;;3.00;1.50;;;16.70;49.20;;;;;;5044870;28;20021;-73
2022/04/11 11:29:21;;;;;;;3.97;2.20;;;16.80;47.80;;;;;;5042608;28;20467;-73
2022/04/11 11:31:49;;;;;;;2.63;1.70;;;16.90;47.70;;;;;;5046436;28;20863;-73
2022/04/11 11:34:18;;;;;;;2.33;1.60;;;17.00;46.70;;;;;;5032057;28;20075;-73
2022/04/11 11:36:44;;;;;;;3.95;2.15;;;17.10;46.50;;;;;;5030734;28;20044;-73
2022/04/11 11:39:18;;;;;;;2.80;1.65;;;17.20;47.10;;;;;;5031314;28;20482;-73
2022/04/11 11:41:45;;;;;;;5.35;2.25;;;17.30;45.70;;;;;;5030973;28;20064;-74
2022/04/11 11:44:11;;;;;;;5.18;2.00;;;17.40;46.70;;;;;;5031549;28;20030;-74
2022/04/11 11:46:51;;;;;;;4.72;2.10;;;17.50;46.40;;;;;;5045916;28;20082;-73
2022/04/11 11:49:17;;;;;;;5.20;2.20;;;17.60;45.90;;;;;;5051525;28;20101;-73
2022/04/11 11:51:43;;;;;;;3.45;1.92;;;17.60;45.80;;;;;;5050678;28;20471;-73
2022/04/11 11:54:09;;;;;;;3.47;1.73;;;17.60;45.70;;;;;;5051331;28;20055;-72
2022/04/11 11:56:46;;;;;;;4.15;2.50;;;17.80;45.20;;;;;;5049216;28;20128;-73
2022/04/11 11:59:12;;;;;;;4.35;2.08;;;18.10;45.80;;;;;;5051156;28;20048;-72
2022/04/11 12:01:39;;;;;;;3.70;2.13;;;18.20;44.50;;;;;;5050773;28;20116;-73
2022/04/11 12:04:18;;;;;;;4.10;1.85;;;18.10;44.80;;;;;;5051719;28;20475;-73
2022/04/11 12:06:45;;;;;;;4.45;2.20;;;18.10;45.90;;;;;;5050604;28;20112;-73
2022/04/11 12:09:10;;;;;;;3.08;1.98;;;18.30;44.80;;;;;;5051467;28;20067;-73
2022/04/11 12:11:36;;;;;;;2.33;1.55;;;18.60;43.10;;;;;;5050824;28;20056;-73
2022/04/11 12:14:09;;;;;;;2.85;1.67;;;18.80;44.10;;;;;;5051717;28;20021;-73
2022/04/11 12:16:55;;;;;;;2.45;1.77;;;19.30;41.30;;;;;;5049651;28;20029;-73
2022/04/11 12:19:33;;;;;;;3.67;2.00;;;19.30;42.40;;;;;;5051862;28;20029;-73
2022/04/11 12:22:12;;;;;;;2.70;1.85;;;19.50;42.10;;;;;;5051944;28;20120;-73
2022/04/11 12:24:38;;;;;;;2.50;2.17;;;19.80;42.40;;;;;;5050578;28;20025;-72
2022/04/11 12:27:06;;;;;;;5.43;1.98;;;;;;;;;;5046629;28;20091;-73
2022/04/11 12:29:43;;;;;;;1.77;1.45;;;20.20;40.70;;;;;;5040513;28;20542;-72
2022/04/11 12:32:14;;;;;;;2.33;1.90;;;20.30;40.10;;;;;;5051189;28;20505;-72
2022/04/11 12:34:43;;;;;;;;;;;20.80;39.80;;;;;;5030997;28;20040;-72
2022/04/11 12:37:12;;;;;;;3.95;2.20;;;21.10;42.30;;;;;;5033405;28;19909;-72
2022/04/11 12:39:56;;;;;;;4.05;1.88;;;21.40;42.00;;;;;;5053856;28;20029;-73
2022/04/11 12:42:24;;;;;;;3.25;2.10;;;21.60;42.60;;;;;;5054820;28;20102;-73
2022/04/11 12:45:04;;;;;;;2.63;2.03;;;21.70;38.80;;;;;;5052015;28;20021;-72
2022/04/11 12:47:29;;;;;;;4.20;2.05;;;21.60;37.80;;;;;;5049112;28;20052;-73
2022/04/11 12:49:55;;;;;;;2.28;1.95;;;21.60;39.00;;;;;;5039274;28;20052;-73
2022/04/11 12:52:22;;;;;;;3.42;2.25;;;21.50;39.20;;;;;;5055449;28;20033;-72
2022/04/11 12:54:51;;;;;;;2.30;1.90;;;21.30;40.00;;;;;;5055366;28;20505;-73
2022/04/11 12:57:29;;;;;;;3.53;2.05;;;21.10;40.20;;;;;;5058812;28;20032;-74
2022/04/11 12:59:56;;;;;;;3.60;2.05;;;21.10;39.70;;;;;;5053808;28;20111;-72
2022/04/11 13:02:26;;;;;;;5.93;2.20;;;20.90;40.70;;;;;;5053038;28;20029;-73
2022/04/11 13:04:55;;;;;;;14.25;2.72;;;20.60;40.40;;;;;;5053432;28;20137;-72
2022/04/11 13:07:25;;;;;;;2.50;2.13;;;20.80;40.20;;;;;;5054282;28;20557;-72